sensor_id;sensor_type;location;lat;lon;timestamp;temperature;humidity
60868;DHT22;46702;48.370;10.794;2023-05-15T00:01:16;10.10;99.90
60868;DHT22;46702;48.370;10.794;2023-05-15T00:03:41;10.10;99.90
60868;DHT22;46702;48.370;10.794;2023-05-15T00:06:07;10.20;99.90
60868;DHT22;46702;48.370;10.794;2023-05-15T00:08:33;10.30;99.90
60868;DHT22;46702;48.370;10.794;2023-05-15T00:10:59;10.20;99.90
60868;DHT22;46702;48.370;10.794;2023-05-15T00:13:24;10.20;99.90
60868;DHT22;46702;48.370;10.794;2023-05-15T00:15:50;10.10;99.90
60868;DHT22;46702;48.370;10.794;2023-05-15T00:18:16;10.00;99.90
60868;DHT22;46702;48.370;10.794;2023-05-15T00:20:41;10.00;99.90
60868;DHT22;46702;48.370;10.794;2023-05-15T00:23:07;10.00;99.90
60868;DHT22;46702;48.370;10.794;2023-05-15T00:25:33;10.00;99.90
60868;DHT22;46702;48.370;10.794;2023-05-15T00:27:59;10.00;99.90
60868;DHT22;46702;48.370;10.794;2023-05-15T00:30:24;10.00;99.90
60868;DHT22;46702;48.370;10.794;2023-05-15T00:32:50;9.90;99.90
60868;DHT22;46702;48.370;10.794;2023-05-15T00:35:16;10.00;99.90
60868;DHT22;46702;48.370;10.794;2023-05-15T00:37:42;10.00;99.90
60868;DHT22;46702;48.370;10.794;2023-05-15T00:40:09;10.10;99.90
60868;DHT22;46702;48.370;10.794;2023-05-15T00:42:37;10.10;99.90
60868;DHT22;46702;48.370;10.794;2023-05-15T00:45:05;10.10;99.90
60868;DHT22;46702;48.370;10.794;2023-05-15T00:47:33;10.20;99.90
60868;DHT22;46702;48.370;10.794;2023-05-15T00:49:59;10.30;99.90
60868;DHT22;46702;48.370;10.794;2023-05-15T00:52:25;10.30;99.90
60868;DHT22;46702;48.370;10.794;2023-05-15T00:54:51;10.20;99.90
60868;DHT22;46702;48.370;10.794;2023-05-15T00:57:17;10.20;99.90
60868;DHT22;46702;48.370;10.794;2023-05-15T00:59:44;10.30;99.90
60868;DHT22;46702;48.370;10.794;2023-05-15T01:02:13;10.20;99.90
60868;DHT22;46702;48.370;10.794;2023-05-15T01:04:40;10.20;99.90
60868;DHT22;46702;48.370;10.794;2023-05-15T01:07:05;10.30;99.90
60868;DHT22;46702;48.370;10.794;2023-05-15T01:09:31;10.30;99.90
60868;DHT22;46702;48.370;10.794;2023-05-15T01:11:59;10.20;99.90
60868;DHT22;46702;48.370;10.794;2023-05-15T01:14:25;10.30;99.90
60868;DHT22;46702;48.370;10.794;2023-05-15T01:16:51;10.30;99.90
60868;DHT22;46702;48.370;10.794;2023-05-15T01:19:17;10.30;99.90
60868;DHT22;46702;48.370;10.794;2023-05-15T01:27:38;10.20;99.90
60868;DHT22;46702;48.370;10.794;2023-05-15T01:30:27;10.30;99.90
60868;DHT22;46702;48.370;10.794;2023-05-15T01:35:49;10.20;99.90
60868;DHT22;46702;48.370;10.794;2023-05-15T01:38:22;10.10;99.90
60868;DHT22;46702;48.370;10.794;2023-05-15T01:41:01;10.00;99.90
60868;DHT22;46702;48.370;10.794;2023-05-15T01:43:32;10.00;99.90
60868;DHT22;46702;48.370;10.794;2023-05-15T01:45:59;9.90;99.90
60868;DHT22;46702;48.370;10.794;2023-05-15T01:48:26;9.90;99.90
60868;DHT22;46702;48.370;10.794;2023-05-15T01:50:54;9.90;99.90
60868;DHT22;46702;48.370;10.794;2023-05-15T01:53:23;9.90;99.90
60868;DHT22;46702;48.370;10.794;2023-05-15T01:55:49;9.90;99.90
60868;DHT22;46702;48.370;10.794;2023-05-15T01:58:17;9.90;99.90
60868;DHT22;46702;48.370;10.794;2023-05-15T02:00:43;9.90;99.90
60868;DHT22;46702;48.370;10.794;2023-05-15T02:03:10;9.90;99.90
60868;DHT22;46702;48.370;10.794;2023-05-15T02:05:35;10.00;99.90
60868;DHT22;46702;48.370;10.794;2023-05-15T02:08:02;9.90;99.90
60868;DHT22;46702;48.370;10.794;2023-05-15T02:10:30;9.90;99.90
60868;DHT22;46702;48.370;10.794;2023-05-15T02:12:56;9.90;99.90
60868;DHT22;46702;48.370;10.794;2023-05-15T02:15:22;9.80;99.90
60868;DHT22;46702;48.370;10.794;2023-05-15T02:17:48;9.80;99.90
60868;DHT22;46702;48.370;10.794;2023-05-15T02:20:14;9.80;99.90
60868;DHT22;46702;48.370;10.794;2023-05-15T02:22:39;9.80;99.90
60868;DHT22;46702;48.370;10.794;2023-05-15T02:25:05;9.80;99.90
60868;DHT22;46702;48.370;10.794;2023-05-15T02:27:55;9.90;99.90
60868;DHT22;46702;48.370;10.794;2023-05-15T02:30:49;9.90;99.90
60868;DHT22;46702;48.370;10.794;2023-05-15T02:33:27;10.00;99.90
60868;DHT22;46702;48.370;10.794;2023-05-15T02:36:08;10.00;99.90
60868;DHT22;46702;48.370;10.794;2023-05-15T02:38:51;10.00;99.90
60868;DHT22;46702;48.370;10.794;2023-05-15T02:41:17;10.00;99.90
60868;DHT22;46702;48.370;10.794;2023-05-15T02:43:45;10.00;99.90
60868;DHT22;46702;48.370;10.794;2023-05-15T02:46:11;10.00;99.90
60868;DHT22;46702;48.370;10.794;2023-05-15T02:48:40;10.00;99.90
60868;DHT22;46702;48.370;10.794;2023-05-15T02:51:06;10.10;99.90
60868;DHT22;46702;48.370;10.794;2023-05-15T02:53:33;10.10;99.90
60868;DHT22;46702;48.370;10.794;2023-05-15T02:56:03;10.00;99.90
60868;DHT22;46702;48.370;10.794;2023-05-15T02:58:29;10.10;99.90
60868;DHT22;46702;48.370;10.794;2023-05-15T03:00:54;10.00;99.90
60868;DHT22;46702;48.370;10.794;2023-05-15T03:03:20;10.10;99.90
60868;DHT22;46702;48.370;10.794;2023-05-15T03:05:46;10.10;99.90
60868;DHT22;46702;48.370;10.794;2023-05-15T03:08:11;10.00;99.90
60868;DHT22;46702;48.370;10.794;2023-05-15T03:10:37;10.00;99.90
60868;DHT22;46702;48.370;10.794;2023-05-15T03:13:03;10.00;99.90
60868;DHT22;46702;48.370;10.794;2023-05-15T03:15:28;10.00;99.90
60868;DHT22;46702;48.370;10.794;2023-05-15T03:17:54;10.00;99.90
60868;DHT22;46702;48.370;10.794;2023-05-15T03:20:20;10.00;99.90
60868;DHT22;46702;48.370;10.794;2023-05-15T03:22:45;10.00;99.90
60868;DHT22;46702;48.370;10.794;2023-05-15T03:25:11;10.00;99.90
60868;DHT22;46702;48.370;10.794;2023-05-15T03:27:37;10.00;99.90
60868;DHT22;46702;48.370;10.794;2023-05-15T03:30:04;10.00;99.90
60868;DHT22;46702;48.370;10.794;2023-05-15T03:32:30;10.00;99.90
60868;DHT22;46702;48.370;10.794;2023-05-15T03:34:55;10.00;99.90
60868;DHT22;46702;48.370;10.794;2023-05-15T03:37:21;10.00;99.90
60868;DHT22;46702;48.370;10.794;2023-05-15T03:39:47;10.00;99.90
60868;DHT22;46702;48.370;10.794;2023-05-15T03:42:12;10.00;99.90
60868;DHT22;46702;48.370;10.794;2023-05-15T03:44:38;10.00;99.90
60868;DHT22;46702;48.370;10.794;2023-05-15T03:47:04;10.10;99.90
60868;DHT22;46702;48.370;10.794;2023-05-15T03:49:29;10.10;99.90
60868;DHT22;46702;48.370;10.794;2023-05-15T03:51:55;10.00;99.90
60868;DHT22;46702;48.370;10.794;2023-05-15T03:54:22;10.10;99.90
60868;DHT22;46702;48.370;10.794;2023-05-15T03:56:47;10.00;99.90
60868;DHT22;46702;48.370;10.794;2023-05-15T03:59:13;10.00;99.90
60868;DHT22;46702;48.370;10.794;2023-05-15T04:01:39;10.00;99.90
60868;DHT22;46702;48.370;10.794;2023-05-15T04:04:04;10.10;99.90
60868;DHT22;46702;48.370;10.794;2023-05-15T04:06:30;10.10;99.90
60868;DHT22;46702;48.370;10.794;2023-05-15T04:08:55;10.10;99.90
60868;DHT22;46702;48.370;10.794;2023-05-15T04:11:21;10.10;99.90
60868;DHT22;46702;48.370;10.794;2023-05-15T04:13:48;10.20;99.90
60868;DHT22;46702;48.370;10.794;2023-05-15T04:16:13;10.20;99.90
60868;DHT22;46702;48.370;10.794;2023-05-15T04:18:39;10.20;99.90
60868;DHT22;46702;48.370;10.794;2023-05-15T04:21:05;10.20;99.90
60868;DHT22;46702;48.370;10.794;2023-05-15T04:23:30;10.20;99.90
60868;DHT22;46702;48.370;10.794;2023-05-15T04:25:56;10.20;99.90
60868;DHT22;46702;48.370;10.794;2023-05-15T04:28:22;10.20;99.90
60868;DHT22;46702;48.370;10.794;2023-05-15T04:30:47;10.20;99.90
60868;DHT22;46702;48.370;10.794;2023-05-15T04:33:13;10.20;99.90
60868;DHT22;46702;48.370;10.794;2023-05-15T04:35:39;10.30;99.90
60868;DHT22;46702;48.370;10.794;2023-05-15T04:38:04;10.20;99.90
60868;DHT22;46702;48.370;10.794;2023-05-15T04:40:30;10.30;99.90
60868;DHT22;46702;48.370;10.794;2023-05-15T04:42:56;10.30;99.90
60868;DHT22;46702;48.370;10.794;2023-05-15T04:45:22;10.30;99.90
60868;DHT22;46702;48.370;10.794;2023-05-15T04:47:49;10.30;99.90
60868;DHT22;46702;48.370;10.794;2023-05-15T04:50:14;10.30;99.90
60868;DHT22;46702;48.370;10.794;2023-05-15T04:52:40;10.30;99.90
60868;DHT22;46702;48.370;10.794;2023-05-15T04:55:08;10.30;99.90
60868;DHT22;46702;48.370;10.794;2023-05-15T04:57:33;10.30;99.90
60868;DHT22;46702;48.370;10.794;2023-05-15T05:00:00;10.30;99.90
60868;DHT22;46702;48.370;10.794;2023-05-15T05:02:25;10.40;99.90
60868;DHT22;46702;48.370;10.794;2023-05-15T05:04:51;10.40;99.90
60868;DHT22;46702;48.370;10.794;2023-05-15T05:07:17;10.40;99.90
60868;DHT22;46702;48.370;10.794;2023-05-15T05:09:43;10.50;99.90
60868;DHT22;46702;48.370;10.794;2023-05-15T05:12:09;10.50;99.90
60868;DHT22;46702;48.370;10.794;2023-05-15T05:14:35;10.50;99.90
60868;DHT22;46702;48.370;10.794;2023-05-15T05:17:01;10.50;99.90
60868;DHT22;46702;48.370;10.794;2023-05-15T05:19:27;10.50;99.90
60868;DHT22;46702;48.370;10.794;2023-05-15T05:21:53;10.60;99.90
60868;DHT22;46702;48.370;10.794;2023-05-15T05:24:19;10.70;99.90
60868;DHT22;46702;48.370;10.794;2023-05-15T05:26:45;10.70;99.90
60868;DHT22;46702;48.370;10.794;2023-05-15T05:29:10;10.70;99.90
60868;DHT22;46702;48.370;10.794;2023-05-15T05:31:36;10.80;99.90
60868;DHT22;46702;48.370;10.794;2023-05-15T05:34:02;10.80;99.90
60868;DHT22;46702;48.370;10.794;2023-05-15T05:36:27;10.90;99.90
60868;DHT22;46702;48.370;10.794;2023-05-15T05:38:59;10.90;99.90
60868;DHT22;46702;48.370;10.794;2023-05-15T05:41:24;10.90;99.90
60868;DHT22;46702;48.370;10.794;2023-05-15T05:43:50;11.00;99.90
60868;DHT22;46702;48.370;10.794;2023-05-15T05:46:16;11.00;99.90
60868;DHT22;46702;48.370;10.794;2023-05-15T05:48:41;11.10;99.90
60868;DHT22;46702;48.370;10.794;2023-05-15T05:51:07;11.20;99.90
60868;DHT22;46702;48.370;10.794;2023-05-15T05:53:33;11.20;99.90
60868;DHT22;46702;48.370;10.794;2023-05-15T05:55:58;11.30;99.90
60868;DHT22;46702;48.370;10.794;2023-05-15T05:58:24;11.30;99.90
60868;DHT22;46702;48.370;10.794;2023-05-15T06:00:50;11.30;99.90
60868;DHT22;46702;48.370;10.794;2023-05-15T06:03:16;11.40;99.90
60868;DHT22;46702;48.370;10.794;2023-05-15T06:05:42;11.50;99.90
60868;DHT22;46702;48.370;10.794;2023-05-15T06:08:07;11.60;99.90
60868;DHT22;46702;48.370;10.794;2023-05-15T06:10:33;11.60;99.90
60868;DHT22;46702;48.370;10.794;2023-05-15T06:12:59;11.70;99.90
60868;DHT22;46702;48.370;10.794;2023-05-15T06:15:25;11.70;99.90
60868;DHT22;46702;48.370;10.794;2023-05-15T06:17:51;11.70;99.90
60868;DHT22;46702;48.370;10.794;2023-05-15T06:20:16;11.80;99.90
60868;DHT22;46702;48.370;10.794;2023-05-15T06:22:42;11.90;99.90
60868;DHT22;46702;48.370;10.794;2023-05-15T06:25:08;11.90;99.90
60868;DHT22;46702;48.370;10.794;2023-05-15T06:27:39;12.00;99.90
60868;DHT22;46702;48.370;10.794;2023-05-15T06:30:05;12.00;99.90
60868;DHT22;46702;48.370;10.794;2023-05-15T06:32:31;12.10;99.90
60868;DHT22;46702;48.370;10.794;2023-05-15T06:34:58;12.10;99.90
60868;DHT22;46702;48.370;10.794;2023-05-15T06:37:23;12.20;99.90
60868;DHT22;46702;48.370;10.794;2023-05-15T06:39:49;12.30;99.90
60868;DHT22;46702;48.370;10.794;2023-05-15T06:42:15;12.30;99.90
60868;DHT22;46702;48.370;10.794;2023-05-15T06:44:40;12.40;99.90
60868;DHT22;46702;48.370;10.794;2023-05-15T06:47:06;12.50;99.90
60868;DHT22;46702;48.370;10.794;2023-05-15T06:49:31;12.60;99.90
60868;DHT22;46702;48.370;10.794;2023-05-15T06:51:57;12.80;99.90
60868;DHT22;46702;48.370;10.794;2023-05-15T06:54:22;13.00;99.90
60868;DHT22;46702;48.370;10.794;2023-05-15T06:56:48;13.10;99.90
60868;DHT22;46702;48.370;10.794;2023-05-15T06:59:14;13.20;99.90
60868;DHT22;46702;48.370;10.794;2023-05-15T07:01:39;13.40;99.90
60868;DHT22;46702;48.370;10.794;2023-05-15T07:04:05;13.50;99.90
60868;DHT22;46702;48.370;10.794;2023-05-15T07:06:31;13.40;99.90
60868;DHT22;46702;48.370;10.794;2023-05-15T07:08:57;13.40;99.90
60868;DHT22;46702;48.370;10.794;2023-05-15T07:11:24;13.40;99.90
60868;DHT22;46702;48.370;10.794;2023-05-15T07:13:50;13.40;99.90
60868;DHT22;46702;48.370;10.794;2023-05-15T07:16:16;13.40;99.90
60868;DHT22;46702;48.370;10.794;2023-05-15T07:18:42;13.40;99.90
60868;DHT22;46702;48.370;10.794;2023-05-15T07:21:07;13.40;99.90
60868;DHT22;46702;48.370;10.794;2023-05-15T07:23:33;13.40;99.90
60868;DHT22;46702;48.370;10.794;2023-05-15T07:25:58;13.60;99.90
60868;DHT22;46702;48.370;10.794;2023-05-15T07:28:24;13.70;99.90
60868;DHT22;46702;48.370;10.794;2023-05-15T07:30:49;13.80;99.90
60868;DHT22;46702;48.370;10.794;2023-05-15T07:33:16;13.60;99.90
60868;DHT22;46702;48.370;10.794;2023-05-15T07:35:42;13.60;99.90
60868;DHT22;46702;48.370;10.794;2023-05-15T07:38:07;13.70;99.90
60868;DHT22;46702;48.370;10.794;2023-05-15T07:40:33;13.70;99.90
60868;DHT22;46702;48.370;10.794;2023-05-15T07:42:58;13.70;99.90
60868;DHT22;46702;48.370;10.794;2023-05-15T07:45:24;13.70;99.90
60868;DHT22;46702;48.370;10.794;2023-05-15T07:47:50;13.80;99.90
60868;DHT22;46702;48.370;10.794;2023-05-15T07:50:16;14.00;99.90
60868;DHT22;46702;48.370;10.794;2023-05-15T07:52:42;14.30;99.90
60868;DHT22;46702;48.370;10.794;2023-05-15T07:55:11;14.60;99.90
60868;DHT22;46702;48.370;10.794;2023-05-15T07:57:37;14.70;99.90
60868;DHT22;46702;48.370;10.794;2023-05-15T08:00:02;14.60;99.90
60868;DHT22;46702;48.370;10.794;2023-05-15T08:02:34;14.60;99.90
60868;DHT22;46702;48.370;10.794;2023-05-15T08:05:00;14.50;99.90
60868;DHT22;46702;48.370;10.794;2023-05-15T08:07:25;14.40;99.90
60868;DHT22;46702;48.370;10.794;2023-05-15T08:09:51;14.50;99.90
60868;DHT22;46702;48.370;10.794;2023-05-15T08:12:18;14.40;99.90
60868;DHT22;46702;48.370;10.794;2023-05-15T08:14:52;14.50;99.90
60868;DHT22;46702;48.370;10.794;2023-05-15T08:17:18;14.60;99.90
60868;DHT22;46702;48.370;10.794;2023-05-15T08:19:45;14.80;99.90
60868;DHT22;46702;48.370;10.794;2023-05-15T08:22:11;14.80;99.90
60868;DHT22;46702;48.370;10.794;2023-05-15T08:24:42;15.00;99.90
60868;DHT22;46702;48.370;10.794;2023-05-15T08:27:08;15.00;99.90
60868;DHT22;46702;48.370;10.794;2023-05-15T08:29:37;15.10;99.90
60868;DHT22;46702;48.370;10.794;2023-05-15T08:32:04;15.30;99.90
60868;DHT22;46702;48.370;10.794;2023-05-15T08:34:30;15.50;99.90
60868;DHT22;46702;48.370;10.794;2023-05-15T08:36:56;15.50;99.90
60868;DHT22;46702;48.370;10.794;2023-05-15T08:39:24;15.50;99.90
60868;DHT22;46702;48.370;10.794;2023-05-15T08:44:21;15.80;99.90
60868;DHT22;46702;48.370;10.794;2023-05-15T08:46:47;15.60;99.90
60868;DHT22;46702;48.370;10.794;2023-05-15T08:51:42;15.30;99.90
60868;DHT22;46702;48.370;10.794;2023-05-15T08:54:08;15.10;99.90
60868;DHT22;46702;48.370;10.794;2023-05-15T08:56:34;14.80;99.90
60868;DHT22;46702;48.370;10.794;2023-05-15T08:59:00;14.60;99.90
60868;DHT22;46702;48.370;10.794;2023-05-15T09:01:27;14.60;99.90
60868;DHT22;46702;48.370;10.794;2023-05-15T09:03:52;14.80;99.90
60868;DHT22;46702;48.370;10.794;2023-05-15T09:06:18;15.30;99.90
60868;DHT22;46702;48.370;10.794;2023-05-15T09:08:45;15.50;99.90
60868;DHT22;46702;48.370;10.794;2023-05-15T09:11:12;15.70;99.90
60868;DHT22;46702;48.370;10.794;2023-05-15T09:13:38;15.60;99.90
60868;DHT22;46702;48.370;10.794;2023-05-15T09:16:04;15.50;99.90
60868;DHT22;46702;48.370;10.794;2023-05-15T09:18:31;15.50;99.90
60868;DHT22;46702;48.370;10.794;2023-05-15T09:21:20;15.40;99.90
60868;DHT22;46702;48.370;10.794;2023-05-15T09:23:46;15.50;99.90
60868;DHT22;46702;48.370;10.794;2023-05-15T09:26:12;15.30;99.90
60868;DHT22;46702;48.370;10.794;2023-05-15T09:28:38;15.40;99.90
60868;DHT22;46702;48.370;10.794;2023-05-15T09:31:04;15.60;99.90
60868;DHT22;46702;48.370;10.794;2023-05-15T09:33:38;15.90;99.90
60868;DHT22;46702;48.370;10.794;2023-05-15T09:36:05;16.10;99.90
60868;DHT22;46702;48.370;10.794;2023-05-15T09:38:38;16.20;99.90
60868;DHT22;46702;48.370;10.794;2023-05-15T09:41:06;16.10;99.90
60868;DHT22;46702;48.370;10.794;2023-05-15T09:43:39;15.90;99.90
60868;DHT22;46702;48.370;10.794;2023-05-15T09:46:06;16.30;99.90
60868;DHT22;46702;48.370;10.794;2023-05-15T09:48:33;16.50;99.90
60868;DHT22;46702;48.370;10.794;2023-05-15T09:50:59;16.10;99.90
60868;DHT22;46702;48.370;10.794;2023-05-15T09:53:27;15.90;99.90
60868;DHT22;46702;48.370;10.794;2023-05-15T09:55:53;15.90;99.90
60868;DHT22;46702;48.370;10.794;2023-05-15T09:58:19;15.90;99.90
60868;DHT22;46702;48.370;10.794;2023-05-15T10:00:46;16.00;99.90
60868;DHT22;46702;48.370;10.794;2023-05-15T10:03:13;15.90;99.90
60868;DHT22;46702;48.370;10.794;2023-05-15T10:05:39;15.90;99.90
60868;DHT22;46702;48.370;10.794;2023-05-15T10:08:05;16.00;99.90
60868;DHT22;46702;48.370;10.794;2023-05-15T10:10:32;16.00;99.90
60868;DHT22;46702;48.370;10.794;2023-05-15T10:12:59;16.10;99.90
60868;DHT22;46702;48.370;10.794;2023-05-15T10:15:28;15.90;99.90
60868;DHT22;46702;48.370;10.794;2023-05-15T10:17:53;15.90;99.90
60868;DHT22;46702;48.370;10.794;2023-05-15T10:20:21;15.90;99.90
60868;DHT22;46702;48.370;10.794;2023-05-15T10:22:52;16.00;99.90
60868;DHT22;46702;48.370;10.794;2023-05-15T10:25:41;15.50;99.90
60868;DHT22;46702;48.370;10.794;2023-05-15T10:28:10;15.00;99.90
60868;DHT22;46702;48.370;10.794;2023-05-15T10:30:37;14.90;99.90
60868;DHT22;46702;48.370;10.794;2023-05-15T10:33:04;14.80;99.90
60868;DHT22;46702;48.370;10.794;2023-05-15T10:35:30;14.70;99.90
60868;DHT22;46702;48.370;10.794;2023-05-15T10:37:56;14.50;99.90
60868;DHT22;46702;48.370;10.794;2023-05-15T10:40:23;14.30;99.90
60868;DHT22;46702;48.370;10.794;2023-05-15T10:42:49;13.80;99.90
60868;DHT22;46702;48.370;10.794;2023-05-15T10:45:14;13.60;99.90
60868;DHT22;46702;48.370;10.794;2023-05-15T10:47:41;13.60;99.90
60868;DHT22;46702;48.370;10.794;2023-05-15T10:50:07;13.70;99.90
60868;DHT22;46702;48.370;10.794;2023-05-15T10:52:37;13.80;99.90
60868;DHT22;46702;48.370;10.794;2023-05-15T10:55:07;13.80;99.90
60868;DHT22;46702;48.370;10.794;2023-05-15T10:57:34;13.90;99.90
60868;DHT22;46702;48.370;10.794;2023-05-15T11:00:00;14.00;99.90
60868;DHT22;46702;48.370;10.794;2023-05-15T11:02:28;14.10;99.90
60868;DHT22;46702;48.370;10.794;2023-05-15T11:05:00;14.20;99.90
60868;DHT22;46702;48.370;10.794;2023-05-15T11:07:26;14.30;99.90
60868;DHT22;46702;48.370;10.794;2023-05-15T11:09:53;14.30;99.90
60868;DHT22;46702;48.370;10.794;2023-05-15T11:12:19;14.30;99.90
60868;DHT22;46702;48.370;10.794;2023-05-15T11:17:17;14.50;99.90
60868;DHT22;46702;48.370;10.794;2023-05-15T11:25:07;14.70;99.90
60868;DHT22;46702;48.370;10.794;2023-05-15T11:27:40;14.90;99.90
60868;DHT22;46702;48.370;10.794;2023-05-15T11:32:48;15.30;99.90
60868;DHT22;46702;48.370;10.794;2023-05-15T11:37:56;16.50;99.90
60868;DHT22;46702;48.370;10.794;2023-05-15T11:40:28;16.50;99.90
60868;DHT22;46702;48.370;10.794;2023-05-15T11:43:16;16.30;99.90
60868;DHT22;46702;48.370;10.794;2023-05-15T11:45:50;16.30;99.90
60868;DHT22;46702;48.370;10.794;2023-05-15T11:48:17;16.40;99.90
60868;DHT22;46702;48.370;10.794;2023-05-15T11:50:44;16.90;99.90
60868;DHT22;46702;48.370;10.794;2023-05-15T11:53:10;17.40;99.90
60868;DHT22;46702;48.370;10.794;2023-05-15T11:55:38;17.80;99.90
60868;DHT22;46702;48.370;10.794;2023-05-15T11:58:04;17.90;99.90
60868;DHT22;46702;48.370;10.794;2023-05-15T12:00:30;17.70;99.90
60868;DHT22;46702;48.370;10.794;2023-05-15T12:02:56;17.60;99.90
60868;DHT22;46702;48.370;10.794;2023-05-15T12:05:22;17.60;99.90
60868;DHT22;46702;48.370;10.794;2023-05-15T12:07:50;17.80;99.90
60868;DHT22;46702;48.370;10.794;2023-05-15T12:10:16;17.70;99.90
60868;DHT22;46702;48.370;10.794;2023-05-15T12:12:43;17.50;99.90
60868;DHT22;46702;48.370;10.794;2023-05-15T12:15:10;17.20;99.90
60868;DHT22;46702;48.370;10.794;2023-05-15T12:17:39;17.00;99.90
60868;DHT22;46702;48.370;10.794;2023-05-15T12:20:07;15.90;99.90
60868;DHT22;46702;48.370;10.794;2023-05-15T12:22:40;15.50;99.90
60868;DHT22;46702;48.370;10.794;2023-05-15T12:25:10;15.40;99.90
60868;DHT22;46702;48.370;10.794;2023-05-15T12:27:37;15.20;99.90
60868;DHT22;46702;48.370;10.794;2023-05-15T12:30:04;15.30;99.90
60868;DHT22;46702;48.370;10.794;2023-05-15T12:32:32;15.40;99.90
60868;DHT22;46702;48.370;10.794;2023-05-15T12:34:59;14.80;99.90
60868;DHT22;46702;48.370;10.794;2023-05-15T12:37:25;14.10;99.90
60868;DHT22;46702;48.370;10.794;2023-05-15T12:39:55;13.30;99.90
60868;DHT22;46702;48.370;10.794;2023-05-15T12:42:21;12.90;99.90
60868;DHT22;46702;48.370;10.794;2023-05-15T12:44:51;12.80;99.90
60868;DHT22;46702;48.370;10.794;2023-05-15T12:47:26;12.80;99.90
60868;DHT22;46702;48.370;10.794;2023-05-15T12:49:56;12.90;99.90
60868;DHT22;46702;48.370;10.794;2023-05-15T12:52:22;12.80;99.90
60868;DHT22;46702;48.370;10.794;2023-05-15T12:54:47;13.00;99.90
60868;DHT22;46702;48.370;10.794;2023-05-15T12:57:13;12.70;99.90
60868;DHT22;46702;48.370;10.794;2023-05-15T12:59:39;12.80;99.90
60868;DHT22;46702;48.370;10.794;2023-05-15T13:02:12;12.80;99.90
60868;DHT22;46702;48.370;10.794;2023-05-15T13:04:38;12.80;99.90
60868;DHT22;46702;48.370;10.794;2023-05-15T13:07:04;13.00;99.90
60868;DHT22;46702;48.370;10.794;2023-05-15T13:09:30;13.10;99.90
60868;DHT22;46702;48.370;10.794;2023-05-15T13:12:00;13.20;99.90
60868;DHT22;46702;48.370;10.794;2023-05-15T13:14:27;13.40;99.90
60868;DHT22;46702;48.370;10.794;2023-05-15T13:16:59;13.60;99.90
60868;DHT22;46702;48.370;10.794;2023-05-15T13:19:26;13.70;99.90
60868;DHT22;46702;48.370;10.794;2023-05-15T13:21:52;13.80;99.90
60868;DHT22;46702;48.370;10.794;2023-05-15T13:24:18;13.80;99.90
60868;DHT22;46702;48.370;10.794;2023-05-15T13:26:44;13.90;99.90
60868;DHT22;46702;48.370;10.794;2023-05-15T13:29:09;13.90;99.90
60868;DHT22;46702;48.370;10.794;2023-05-15T13:31:35;13.90;99.90
60868;DHT22;46702;48.370;10.794;2023-05-15T13:34:00;13.80;99.90
60868;DHT22;46702;48.370;10.794;2023-05-15T13:36:26;13.80;99.90
60868;DHT22;46702;48.370;10.794;2023-05-15T13:38:51;13.80;99.90
60868;DHT22;46702;48.370;10.794;2023-05-15T13:41:17;13.70;99.90
60868;DHT22;46702;48.370;10.794;2023-05-15T13:43:43;13.80;99.90
60868;DHT22;46702;48.370;10.794;2023-05-15T13:46:08;13.70;99.90
60868;DHT22;46702;48.370;10.794;2023-05-15T13:48:34;13.60;99.90
60868;DHT22;46702;48.370;10.794;2023-05-15T13:50:59;13.60;99.90
60868;DHT22;46702;48.370;10.794;2023-05-15T13:53:25;13.50;99.90
60868;DHT22;46702;48.370;10.794;2023-05-15T13:55:50;13.40;99.90
60868;DHT22;46702;48.370;10.794;2023-05-15T13:58:16;13.30;99.90
60868;DHT22;46702;48.370;10.794;2023-05-15T14:00:42;13.20;99.90
60868;DHT22;46702;48.370;10.794;2023-05-15T14:03:08;13.10;99.90
60868;DHT22;46702;48.370;10.794;2023-05-15T14:05:34;13.10;99.90
60868;DHT22;46702;48.370;10.794;2023-05-15T14:07:59;13.10;99.90
60868;DHT22;46702;48.370;10.794;2023-05-15T14:10:25;13.10;99.90
60868;DHT22;46702;48.370;10.794;2023-05-15T14:12:51;13.10;99.90
60868;DHT22;46702;48.370;10.794;2023-05-15T14:15:17;13.00;99.90
60868;DHT22;46702;48.370;10.794;2023-05-15T14:17:42;12.90;99.90
60868;DHT22;46702;48.370;10.794;2023-05-15T14:20:09;12.80;99.90
60868;DHT22;46702;48.370;10.794;2023-05-15T14:22:36;12.70;99.90
60868;DHT22;46702;48.370;10.794;2023-05-15T14:25:03;12.80;99.90
60868;DHT22;46702;48.370;10.794;2023-05-15T14:27:28;12.80;99.90
60868;DHT22;46702;48.370;10.794;2023-05-15T14:29:54;12.80;99.90
60868;DHT22;46702;48.370;10.794;2023-05-15T14:32:22;13.00;99.90
60868;DHT22;46702;48.370;10.794;2023-05-15T14:34:48;13.00;99.90
60868;DHT22;46702;48.370;10.794;2023-05-15T14:37:14;13.00;99.90
60868;DHT22;46702;48.370;10.794;2023-05-15T14:39:40;13.00;99.90
60868;DHT22;46702;48.370;10.794;2023-05-15T14:42:06;13.00;99.90
60868;DHT22;46702;48.370;10.794;2023-05-15T14:44:32;13.00;99.90
60868;DHT22;46702;48.370;10.794;2023-05-15T14:47:09;13.00;99.90
60868;DHT22;46702;48.370;10.794;2023-05-15T14:49:36;13.00;99.90
60868;DHT22;46702;48.370;10.794;2023-05-15T14:52:04;13.10;99.90
60868;DHT22;46702;48.370;10.794;2023-05-15T14:54:30;13.10;99.90
60868;DHT22;46702;48.370;10.794;2023-05-15T14:56:56;13.10;99.90
60868;DHT22;46702;48.370;10.794;2023-05-15T14:59:22;13.10;99.90
60868;DHT22;46702;48.370;10.794;2023-05-15T15:01:48;13.20;99.90
60868;DHT22;46702;48.370;10.794;2023-05-15T15:04:14;13.20;99.90
60868;DHT22;46702;48.370;10.794;2023-05-15T15:06:39;13.20;99.90
60868;DHT22;46702;48.370;10.794;2023-05-15T15:09:05;13.30;99.90
60868;DHT22;46702;48.370;10.794;2023-05-15T15:11:31;13.30;99.90
60868;DHT22;46702;48.370;10.794;2023-05-15T15:13:56;13.50;99.90
60868;DHT22;46702;48.370;10.794;2023-05-15T15:16:22;13.70;99.90
60868;DHT22;46702;48.370;10.794;2023-05-15T15:18:47;13.90;99.90
60868;DHT22;46702;48.370;10.794;2023-05-15T15:21:13;13.90;99.90
60868;DHT22;46702;48.370;10.794;2023-05-15T15:23:39;14.10;99.90
60868;DHT22;46702;48.370;10.794;2023-05-15T15:26:05;14.10;99.90
60868;DHT22;46702;48.370;10.794;2023-05-15T15:28:30;14.30;99.90
60868;DHT22;46702;48.370;10.794;2023-05-15T15:30:59;14.40;99.90
60868;DHT22;46702;48.370;10.794;2023-05-15T15:33:24;14.30;99.90
60868;DHT22;46702;48.370;10.794;2023-05-15T15:35:50;14.30;99.90
60868;DHT22;46702;48.370;10.794;2023-05-15T15:38:16;14.30;99.90
60868;DHT22;46702;48.370;10.794;2023-05-15T15:40:41;14.50;99.90
60868;DHT22;46702;48.370;10.794;2023-05-15T15:43:07;14.70;99.90